sensor_id;sensor_type;location;lat;lon;timestamp;P1;durP1;ratioP1;P2;durP2;ratioP2
7047;SDS011;3565;53.254;10.352;2024-01-16T00:04:44;10.47;;;5.40;;
7047;SDS011;3565;53.254;10.352;2024-01-16T00:07:13;7.90;;;4.93;;
7047;SDS011;3565;53.254;10.352;2024-01-16T00:09:42;7.10;;;5.20;;
7047;SDS011;3565;53.254;10.352;2024-01-16T00:12:11;8.17;;;5.90;;
7047;SDS011;3565;53.254;10.352;2024-01-16T00:14:50;10.10;;;6.40;;
7047;SDS011;3565;53.254;10.352;2024-01-16T00:17:20;8.50;;;6.07;;
7047;SDS011;3565;53.254;10.352;2024-01-16T00:22:26;8.90;;;6.13;;
7047;SDS011;3565;53.254;10.352;2024-01-16T00:24:55;9.67;;;6.40;;
7047;SDS011;3565;53.254;10.352;2024-01-16T00:27:24;11.30;;;6.03;;
7047;SDS011;3565;53.254;10.352;2024-01-16T00:32:31;8.73;;;5.73;;
7047;SDS011;3565;53.254;10.352;2024-01-16T00:35:00;8.07;;;6.33;;
7047;SDS011;3565;53.254;10.352;2024-01-16T00:37:30;9.13;;;6.33;;
7047;SDS011;3565;53.254;10.352;2024-01-16T00:42:37;9.13;;;6.43;;
7047;SDS011;3565;53.254;10.352;2024-01-16T00:45:09;7.90;;;5.97;;
7047;SDS011;3565;53.254;10.352;2024-01-16T00:47:38;8.50;;;6.00;;
7047;SDS011;3565;53.254;10.352;2024-01-16T00:52:47;9.07;;;6.17;;
7047;SDS011;3565;53.254;10.352;2024-01-16T00:55:16;8.23;;;6.17;;
7047;SDS011;3565;53.254;10.352;2024-01-16T00:57:46;9.03;;;5.97;;
7047;SDS011;3565;53.254;10.352;2024-01-16T01:00:15;8.83;;;5.80;;
7047;SDS011;3565;53.254;10.352;2024-01-16T01:02:45;9.07;;;5.97;;
7047;SDS011;3565;53.254;10.352;2024-01-16T01:05:14;8.33;;;5.67;;
7047;SDS011;3565;53.254;10.352;2024-01-16T01:07:43;11.30;;;6.47;;
7047;SDS011;3565;53.254;10.352;2024-01-16T01:10:13;10.13;;;6.43;;
7047;SDS011;3565;53.254;10.352;2024-01-16T01:12:42;10.23;;;6.67;;
7047;SDS011;3565;53.254;10.352;2024-01-16T01:15:11;9.77;;;6.70;;
7047;SDS011;3565;53.254;10.352;2024-01-16T01:17:40;8.83;;;6.67;;
7047;SDS011;3565;53.254;10.352;2024-01-16T01:20:11;11.73;;;7.27;;
7047;SDS011;3565;53.254;10.352;2024-01-16T01:22:40;8.10;;;6.63;;
7047;SDS011;3565;53.254;10.352;2024-01-16T01:25:11;11.50;;;7.37;;
7047;SDS011;3565;53.254;10.352;2024-01-16T01:27:40;12.03;;;7.63;;
7047;SDS011;3565;53.254;10.352;2024-01-16T01:30:19;15.40;;;8.53;;
7047;SDS011;3565;53.254;10.352;2024-01-16T01:32:48;11.87;;;7.33;;
7047;SDS011;3565;53.254;10.352;2024-01-16T01:35:17;12.53;;;7.30;;
7047;SDS011;3565;53.254;10.352;2024-01-16T01:37:56;10.33;;;6.50;;
7047;SDS011;3565;53.254;10.352;2024-01-16T01:40:25;11.00;;;7.10;;
7047;SDS011;3565;53.254;10.352;2024-01-16T01:45:31;10.83;;;6.60;;
7047;SDS011;3565;53.254;10.352;2024-01-16T01:48:00;10.63;;;7.20;;
7047;SDS011;3565;53.254;10.352;2024-01-16T01:53:08;9.30;;;5.90;;
7047;SDS011;3565;53.254;10.352;2024-01-16T01:55:37;9.03;;;6.70;;
7047;SDS011;3565;53.254;10.352;2024-01-16T01:58:06;10.03;;;6.73;;
7047;SDS011;3565;53.254;10.352;2024-01-16T02:03:12;9.17;;;6.53;;
7047;SDS011;3565;53.254;10.352;2024-01-16T02:05:42;7.63;;;5.90;;
7047;SDS011;3565;53.254;10.352;2024-01-16T02:08:20;10.87;;;6.20;;
7047;SDS011;3565;53.254;10.352;2024-01-16T02:10:50;9.23;;;6.30;;
7047;SDS011;3565;53.254;10.352;2024-01-16T02:13:19;10.23;;;5.83;;
7047;SDS011;3565;53.254;10.352;2024-01-16T02:15:49;9.33;;;6.37;;
7047;SDS011;3565;53.254;10.352;2024-01-16T02:18:18;12.50;;;6.57;;
7047;SDS011;3565;53.254;10.352;2024-01-16T02:20:47;10.47;;;6.43;;
7047;SDS011;3565;53.254;10.352;2024-01-16T02:23:21;10.60;;;5.87;;
7047;SDS011;3565;53.254;10.352;2024-01-16T02:25:53;9.70;;;5.60;;
7047;SDS011;3565;53.254;10.352;2024-01-16T02:28:23;9.50;;;6.20;;
7047;SDS011;3565;53.254;10.352;2024-01-16T02:33:30;9.33;;;5.80;;
7047;SDS011;3565;53.254;10.352;2024-01-16T02:35:59;7.20;;;5.30;;
7047;SDS011;3565;53.254;10.352;2024-01-16T02:38:28;9.13;;;6.27;;
7047;SDS011;3565;53.254;10.352;2024-01-16T02:41:07;9.77;;;6.27;;
7047;SDS011;3565;53.254;10.352;2024-01-16T02:46:14;10.70;;;5.93;;
7047;SDS011;3565;53.254;10.352;2024-01-16T02:48:45;7.67;;;5.53;;
7047;SDS011;3565;53.254;10.352;2024-01-16T02:51:15;8.93;;;6.00;;
7047;SDS011;3565;53.254;10.352;2024-01-16T02:53:54;9.37;;;5.73;;
7047;SDS011;3565;53.254;10.352;2024-01-16T02:56:23;9.47;;;6.10;;
7047;SDS011;3565;53.254;10.352;2024-01-16T02:58:52;10.30;;;6.40;;
7047;SDS011;3565;53.254;10.352;2024-01-16T03:01:31;13.37;;;6.27;;
7047;SDS011;3565;53.254;10.352;2024-01-16T03:04:00;8.93;;;5.97;;
7047;SDS011;3565;53.254;10.352;2024-01-16T03:09:07;11.67;;;6.53;;
7047;SDS011;3565;53.254;10.352;2024-01-16T03:14:15;12.33;;;6.37;;
7047;SDS011;3565;53.254;10.352;2024-01-16T03:16:45;10.33;;;6.53;;
7047;SDS011;3565;53.254;10.352;2024-01-16T03:19:15;8.70;;;6.00;;
7047;SDS011;3565;53.254;10.352;2024-01-16T03:21:44;9.43;;;6.60;;
7047;SDS011;3565;53.254;10.352;2024-01-16T03:24:13;10.57;;;6.30;;
7047;SDS011;3565;53.254;10.352;2024-01-16T03:26:42;12.23;;;6.97;;
7047;SDS011;3565;53.254;10.352;2024-01-16T03:29:12;12.20;;;6.87;;
7047;SDS011;3565;53.254;10.352;2024-01-16T03:31:41;13.33;;;7.83;;
7047;SDS011;3565;53.254;10.352;2024-01-16T03:34:10;13.70;;;7.30;;
7047;SDS011;3565;53.254;10.352;2024-01-16T03:39:17;10.93;;;6.73;;
7047;SDS011;3565;53.254;10.352;2024-01-16T03:41:46;12.70;;;7.23;;
7047;SDS011;3565;53.254;10.352;2024-01-16T03:44:15;12.67;;;8.10;;
7047;SDS011;3565;53.254;10.352;2024-01-16T03:46:44;12.00;;;7.43;;
7047;SDS011;3565;53.254;10.352;2024-01-16T03:49:13;12.70;;;7.63;;
7047;SDS011;3565;53.254;10.352;2024-01-16T03:54:19;11.17;;;7.47;;
7047;SDS011;3565;53.254;10.352;2024-01-16T03:59:26;13.10;;;8.07;;
7047;SDS011;3565;53.254;10.352;2024-01-16T04:01:55;12.03;;;7.23;;
7047;SDS011;3565;53.254;10.352;2024-01-16T04:04:23;14.77;;;8.27;;
7047;SDS011;3565;53.254;10.352;2024-01-16T04:09:33;12.43;;;7.77;;
7047;SDS011;3565;53.254;10.352;2024-01-16T04:12:02;10.37;;;7.50;;
7047;SDS011;3565;53.254;10.352;2024-01-16T04:14:40;14.70;;;8.50;;
7047;SDS011;3565;53.254;10.352;2024-01-16T04:17:09;14.00;;;7.43;;
7047;SDS011;3565;53.254;10.352;2024-01-16T04:19:48;11.47;;;7.07;;
7047;SDS011;3565;53.254;10.352;2024-01-16T04:22:17;10.97;;;6.70;;
7047;SDS011;3565;53.254;10.352;2024-01-16T04:24:46;11.73;;;7.20;;
7047;SDS011;3565;53.254;10.352;2024-01-16T04:27:15;12.60;;;6.33;;
7047;SDS011;3565;53.254;10.352;2024-01-16T04:29:44;10.87;;;6.47;;
7047;SDS011;3565;53.254;10.352;2024-01-16T04:32:13;10.70;;;6.00;;
7047;SDS011;3565;53.254;10.352;2024-01-16T04:34:42;9.73;;;6.27;;
7047;SDS011;3565;53.254;10.352;2024-01-16T04:37:20;9.27;;;5.73;;
7047;SDS011;3565;53.254;10.352;2024-01-16T04:39:51;8.93;;;6.27;;
7047;SDS011;3565;53.254;10.352;2024-01-16T04:45:01;12.33;;;6.40;;
7047;SDS011;3565;53.254;10.352;2024-01-16T04:47:31;10.43;;;5.63;;
7047;SDS011;3565;53.254;10.352;2024-01-16T04:50:00;9.10;;;5.43;;
7047;SDS011;3565;53.254;10.352;2024-01-16T04:55:07;7.17;;;4.80;;
7047;SDS011;3565;53.254;10.352;2024-01-16T05:00:14;7.37;;;5.37;;
7047;SDS011;3565;53.254;10.352;2024-01-16T05:02:45;5.67;;;4.40;;
7047;SDS011;3565;53.254;10.352;2024-01-16T05:05:23;9.70;;;4.03;;
7047;SDS011;3565;53.254;10.352;2024-01-16T05:07:52;8.87;;;4.00;;
7047;SDS011;3565;53.254;10.352;2024-01-16T05:12:58;4.27;;;3.30;;
7047;SDS011;3565;53.254;10.352;2024-01-16T05:15:28;3.07;;;2.70;;
7047;SDS011;3565;53.254;10.352;2024-01-16T05:17:57;3.73;;;3.13;;
7047;SDS011;3565;53.254;10.352;2024-01-16T05:23:03;6.53;;;2.43;;
7047;SDS011;3565;53.254;10.352;2024-01-16T05:25:32;4.00;;;2.70;;
7047;SDS011;3565;53.254;10.352;2024-01-16T05:28:10;3.83;;;2.50;;
7047;SDS011;3565;53.254;10.352;2024-01-16T05:33:17;2.30;;;2.10;;
7047;SDS011;3565;53.254;10.352;2024-01-16T05:35:46;3.30;;;2.10;;
7047;SDS011;3565;53.254;10.352;2024-01-16T05:38:15;2.77;;;2.23;;
7047;SDS011;3565;53.254;10.352;2024-01-16T05:43:21;2.50;;;2.30;;
7047;SDS011;3565;53.254;10.352;2024-01-16T05:45:50;3.83;;;2.30;;
7047;SDS011;3565;53.254;10.352;2024-01-16T05:48:19;3.00;;;2.70;;
7047;SDS011;3565;53.254;10.352;2024-01-16T05:50:48;4.00;;;2.40;;
7047;SDS011;3565;53.254;10.352;2024-01-16T05:53:17;2.57;;;2.37;;
7047;SDS011;3565;53.254;10.352;2024-01-16T05:55:46;4.07;;;2.70;;
7047;SDS011;3565;53.254;10.352;2024-01-16T05:58:15;6.90;;;3.10;;
7047;SDS011;3565;53.254;10.352;2024-01-16T06:00:44;7.17;;;4.03;;
7047;SDS011;3565;53.254;10.352;2024-01-16T06:03:13;6.13;;;3.93;;
7047;SDS011;3565;53.254;10.352;2024-01-16T06:08:19;11.87;;;5.47;;
7047;SDS011;3565;53.254;10.352;2024-01-16T06:10:48;7.60;;;4.57;;
7047;SDS011;3565;53.254;10.352;2024-01-16T06:13:18;10.80;;;6.00;;
7047;SDS011;3565;53.254;10.352;2024-01-16T06:15:47;11.00;;;5.67;;
7047;SDS011;3565;53.254;10.352;2024-01-16T06:20:53;13.53;;;6.27;;
7047;SDS011;3565;53.254;10.352;2024-01-16T06:23:22;9.97;;;5.77;;
7047;SDS011;3565;53.254;10.352;2024-01-16T06:28:28;10.00;;;5.77;;
7047;SDS011;3565;53.254;10.352;2024-01-16T06:30:58;11.53;;;6.60;;
7047;SDS011;3565;53.254;10.352;2024-01-16T06:33:27;14.00;;;7.23;;
7047;SDS011;3565;53.254;10.352;2024-01-16T06:38:33;14.93;;;7.00;;
7047;SDS011;3565;53.254;10.352;2024-01-16T06:43:39;12.23;;;6.80;;
7047;SDS011;3565;53.254;10.352;2024-01-16T06:46:09;12.07;;;6.17;;
7047;SDS011;3565;53.254;10.352;2024-01-16T06:51:15;12.30;;;6.03;;
7047;SDS011;3565;53.254;10.352;2024-01-16T06:53:44;12.40;;;6.17;;
7047;SDS011;3565;53.254;10.352;2024-01-16T06:58:50;9.87;;;5.50;;
7047;SDS011;3565;53.254;10.352;2024-01-16T07:01:19;10.80;;;5.77;;
7047;SDS011;3565;53.254;10.352;2024-01-16T07:03:48;10.93;;;6.57;;
7047;SDS011;3565;53.254;10.352;2024-01-16T07:06:27;10.93;;;5.60;;
7047;SDS011;3565;53.254;10.352;2024-01-16T07:08:56;10.97;;;5.37;;
7047;SDS011;3565;53.254;10.352;2024-01-16T07:11:25;11.20;;;5.80;;
7047;SDS011;3565;53.254;10.352;2024-01-16T07:13:54;9.90;;;4.60;;
7047;SDS011;3565;53.254;10.352;2024-01-16T07:16:23;12.73;;;5.87;;
7047;SDS011;3565;53.254;10.352;2024-01-16T07:18:52;10.63;;;5.50;;
7047;SDS011;3565;53.254;10.352;2024-01-16T07:21:22;11.57;;;5.73;;
7047;SDS011;3565;53.254;10.352;2024-01-16T07:24:00;12.60;;;5.43;;
7047;SDS011;3565;53.254;10.352;2024-01-16T07:26:30;12.07;;;5.43;;
7047;SDS011;3565;53.254;10.352;2024-01-16T07:31:36;13.13;;;5.90;;
7047;SDS011;3565;53.254;10.352;2024-01-16T07:34:06;8.13;;;5.40;;
7047;SDS011;3565;53.254;10.352;2024-01-16T07:39:12;9.23;;;5.60;;
7047;SDS011;3565;53.254;10.352;2024-01-16T07:41:41;10.63;;;5.00;;
7047;SDS011;3565;53.254;10.352;2024-01-16T07:44:10;8.67;;;4.80;;
7047;SDS011;3565;53.254;10.352;2024-01-16T07:49:16;7.70;;;4.77;;
7047;SDS011;3565;53.254;10.352;2024-01-16T07:51:45;9.10;;;4.83;;
7047;SDS011;3565;53.254;10.352;2024-01-16T07:54:24;7.93;;;4.87;;
7047;SDS011;3565;53.254;10.352;2024-01-16T07:56:53;12.97;;;5.47;;
7047;SDS011;3565;53.254;10.352;2024-01-16T08:01:59;6.67;;;4.80;;
7047;SDS011;3565;53.254;10.352;2024-01-16T08:04:29;6.90;;;3.93;;
7047;SDS011;3565;53.254;10.352;2024-01-16T08:09:36;7.80;;;3.80;;
7047;SDS011;3565;53.254;10.352;2024-01-16T08:12:06;9.13;;;3.83;;
7047;SDS011;3565;53.254;10.352;2024-01-16T08:17:16;7.17;;;3.50;;
7047;SDS011;3565;53.254;10.352;2024-01-16T08:19:45;10.47;;;3.83;;
7047;SDS011;3565;53.254;10.352;2024-01-16T08:22:14;4.60;;;3.00;;
7047;SDS011;3565;53.254;10.352;2024-01-16T08:24:43;7.20;;;3.03;;
7047;SDS011;3565;53.254;10.352;2024-01-16T08:27:21;7.57;;;3.33;;
7047;SDS011;3565;53.254;10.352;2024-01-16T08:29:50;7.70;;;3.40;;
7047;SDS011;3565;53.254;10.352;2024-01-16T08:32:19;8.33;;;3.17;;
7047;SDS011;3565;53.254;10.352;2024-01-16T08:37:25;6.37;;;3.20;;
7047;SDS011;3565;53.254;10.352;2024-01-16T08:39:55;6.57;;;3.07;;
7047;SDS011;3565;53.254;10.352;2024-01-16T08:42:24;5.97;;;3.13;;
7047;SDS011;3565;53.254;10.352;2024-01-16T08:44:53;5.90;;;3.00;;
7047;SDS011;3565;53.254;10.352;2024-01-16T08:49:59;5.20;;;3.00;;
7047;SDS011;3565;53.254;10.352;2024-01-16T08:52:29;8.90;;;3.03;;
7047;SDS011;3565;53.254;10.352;2024-01-16T08:57:35;4.37;;;2.70;;
7047;SDS011;3565;53.254;10.352;2024-01-16T09:00:06;4.17;;;2.60;;
7047;SDS011;3565;53.254;10.352;2024-01-16T09:02:38;5.47;;;3.50;;
7047;SDS011;3565;53.254;10.352;2024-01-16T09:07:48;5.00;;;3.67;;
7047;SDS011;3565;53.254;10.352;2024-01-16T09:13:05;7.40;;;3.03;;
7047;SDS011;3565;53.254;10.352;2024-01-16T09:15:43;6.20;;;4.10;;
7047;SDS011;3565;53.254;10.352;2024-01-16T09:18:21;7.73;;;3.70;;
7047;SDS011;3565;53.254;10.352;2024-01-16T09:20:50;6.43;;;3.87;;
7047;SDS011;3565;53.254;10.352;2024-01-16T09:23:21;8.03;;;4.17;;
7047;SDS011;3565;53.254;10.352;2024-01-16T09:28:27;9.70;;;3.40;;
7047;SDS011;3565;53.254;10.352;2024-01-16T09:30:57;8.73;;;3.70;;
7047;SDS011;3565;53.254;10.352;2024-01-16T09:33:25;9.93;;;3.50;;
7047;SDS011;3565;53.254;10.352;2024-01-16T09:35:55;8.07;;;3.80;;
7047;SDS011;3565;53.254;10.352;2024-01-16T09:38:23;5.73;;;4.27;;
7047;SDS011;3565;53.254;10.352;2024-01-16T09:40:52;5.63;;;3.77;;
7047;SDS011;3565;53.254;10.352;2024-01-16T09:43:24;6.53;;;3.33;;
7047;SDS011;3565;53.254;10.352;2024-01-16T09:45:55;7.10;;;3.80;;
7047;SDS011;3565;53.254;10.352;2024-01-16T09:48:26;6.43;;;4.13;;
7047;SDS011;3565;53.254;10.352;2024-01-16T09:53:35;5.23;;;3.70;;
7047;SDS011;3565;53.254;10.352;2024-01-16T09:56:05;6.37;;;3.93;;
7047;SDS011;3565;53.254;10.352;2024-01-16T09:58:38;10.37;;;3.90;;
7047;SDS011;3565;53.254;10.352;2024-01-16T10:03:44;7.37;;;4.13;;
7047;SDS011;3565;53.254;10.352;2024-01-16T10:06:14;7.93;;;3.43;;
7047;SDS011;3565;53.254;10.352;2024-01-16T10:08:45;9.17;;;3.50;;
7047;SDS011;3565;53.254;10.352;2024-01-16T10:11:14;6.70;;;3.73;;
7047;SDS011;3565;53.254;10.352;2024-01-16T10:16:21;6.87;;;3.87;;
7047;SDS011;3565;53.254;10.352;2024-01-16T10:18:52;8.57;;;3.93;;
7047;SDS011;3565;53.254;10.352;2024-01-16T10:21:31;7.50;;;3.83;;
7047;SDS011;3565;53.254;10.352;2024-01-16T10:24:03;6.23;;;3.73;;
7047;SDS011;3565;53.254;10.352;2024-01-16T10:29:16;10.13;;;3.80;;
7047;SDS011;3565;53.254;10.352;2024-01-16T10:31:45;7.57;;;4.10;;
7047;SDS011;3565;53.254;10.352;2024-01-16T10:34:24;5.43;;;3.80;;
7047;SDS011;3565;53.254;10.352;2024-01-16T10:36:58;4.50;;;3.83;;
7047;SDS011;3565;53.254;10.352;2024-01-16T10:39:27;9.53;;;4.20;;
7047;SDS011;3565;53.254;10.352;2024-01-16T10:41:56;4.50;;;3.53;;
7047;SDS011;3565;53.254;10.352;2024-01-16T10:44:25;7.33;;;3.50;;
7047;SDS011;3565;53.254;10.352;2024-01-16T10:49:44;9.30;;;3.63;;
7047;SDS011;3565;53.254;10.352;2024-01-16T10:52:13;9.20;;;3.60;;
7047;SDS011;3565;53.254;10.352;2024-01-16T10:57:22;5.03;;;3.77;;
7047;SDS011;3565;53.254;10.352;2024-01-16T10:59:56;6.80;;;3.90;;
7047;SDS011;3565;53.254;10.352;2024-01-16T11:02:27;6.87;;;4.03;;
7047;SDS011;3565;53.254;10.352;2024-01-16T11:04:59;7.20;;;3.53;;
7047;SDS011;3565;53.254;10.352;2024-01-16T11:07:38;6.43;;;4.10;;
7047;SDS011;3565;53.254;10.352;2024-01-16T11:10:09;6.57;;;3.83;;
7047;SDS011;3565;53.254;10.352;2024-01-16T11:15:16;7.27;;;4.00;;
7047;SDS011;3565;53.254;10.352;2024-01-16T11:17:45;6.67;;;4.03;;
7047;SDS011;3565;53.254;10.352;2024-01-16T11:22:52;5.23;;;3.90;;
7047;SDS011;3565;53.254;10.352;2024-01-16T11:25:24;6.90;;;3.83;;
7047;SDS011;3565;53.254;10.352;2024-01-16T11:28:08;6.30;;;3.90;;
7047;SDS011;3565;53.254;10.352;2024-01-16T11:39:26;5.57;;;4.40;;
7047;SDS011;3565;53.254;10.352;2024-01-16T11:41:56;7.47;;;5.20;;
7047;SDS011;3565;53.254;10.352;2024-01-16T11:47:18;9.40;;;4.87;;
7047;SDS011;3565;53.254;10.352;2024-01-16T11:49:49;9.70;;;4.93;;
7047;SDS011;3565;53.254;10.352;2024-01-16T11:55:25;11.70;;;5.17;;
7047;SDS011;3565;53.254;10.352;2024-01-16T11:58:02;10.60;;;5.53;;
7047;SDS011;3565;53.254;10.352;2024-01-16T12:03:24;7.57;;;4.57;;
7047;SDS011;3565;53.254;10.352;2024-01-16T12:05:56;9.47;;;5.37;;
7047;SDS011;3565;53.254;10.352;2024-01-16T12:08:26;11.13;;;5.13;;
7047;SDS011;3565;53.254;10.352;2024-01-16T12:10:56;9.37;;;5.07;;
7047;SDS011;3565;53.254;10.352;2024-01-16T12:16:03;16.43;;;6.27;;
7047;SDS011;3565;53.254;10.352;2024-01-16T12:18:33;10.50;;;5.97;;
7047;SDS011;3565;53.254;10.352;2024-01-16T12:23:45;7.83;;;6.20;;
7047;SDS011;3565;53.254;10.352;2024-01-16T12:26:20;13.90;;;6.17;;
7047;SDS011;3565;53.254;10.352;2024-01-16T12:28:51;12.70;;;5.97;;
7047;SDS011;3565;53.254;10.352;2024-01-16T12:31:20;9.40;;;4.63;;
7047;SDS011;3565;53.254;10.352;2024-01-16T12:36:26;10.40;;;5.83;;
7047;SDS011;3565;53.254;10.352;2024-01-16T12:38:55;9.03;;;5.50;;
7047;SDS011;3565;53.254;10.352;2024-01-16T12:44:02;8.50;;;6.20;;
7047;SDS011;3565;53.254;10.352;2024-01-16T12:46:31;15.43;;;6.13;;
7047;SDS011;3565;53.254;10.352;2024-01-16T12:49:01;12.93;;;6.47;;
7047;SDS011;3565;53.254;10.352;2024-01-16T12:54:13;14.47;;;6.33;;
7047;SDS011;3565;53.254;10.352;2024-01-16T12:56:43;9.87;;;6.17;;
7047;SDS011;3565;53.254;10.352;2024-01-16T12:59:13;10.10;;;6.47;;
7047;SDS011;3565;53.254;10.352;2024-01-16T13:04:19;14.23;;;6.73;;
7047;SDS011;3565;53.254;10.352;2024-01-16T13:06:48;9.97;;;6.53;;
7047;SDS011;3565;53.254;10.352;2024-01-16T13:09:17;12.57;;;6.77;;
7047;SDS011;3565;53.254;10.352;2024-01-16T13:11:57;12.30;;;6.00;;
7047;SDS011;3565;53.254;10.352;2024-01-16T13:14:26;11.70;;;6.00;;
7047;SDS011;3565;53.254;10.352;2024-01-16T13:16:56;11.67;;;6.60;;
7047;SDS011;3565;53.254;10.352;2024-01-16T13:19:27;9.60;;;5.63;;
7047;SDS011;3565;53.254;10.352;2024-01-16T13:21:59;8.30;;;5.70;;
7047;SDS011;3565;53.254;10.352;2024-01-16T13:24:29;9.07;;;5.33;;
7047;SDS011;3565;53.254;10.352;2024-01-16T13:29:45;13.53;;;6.30;;
7047;SDS011;3565;53.254;10.352;2024-01-16T13:32:15;16.20;;;6.40;;
7047;SDS011;3565;53.254;10.352;2024-01-16T13:37:21;11.50;;;5.40;;
7047;SDS011;3565;53.254;10.352;2024-01-16T13:39:50;7.83;;;5.37;;
7047;SDS011;3565;53.254;10.352;2024-01-16T13:42:19;13.10;;;5.20;;
7047;SDS011;3565;53.254;10.352;2024-01-16T13:47:26;8.23;;;5.43;;
7047;SDS011;3565;53.254;10.352;2024-01-16T13:52:32;9.07;;;5.27;;
7047;SDS011;3565;53.254;10.352;2024-01-16T13:55:02;8.40;;;5.67;;
7047;SDS011;3565;53.254;10.352;2024-01-16T13:57:32;9.90;;;5.50;;
7047;SDS011;3565;53.254;10.352;2024-01-16T14:00:12;14.57;;;6.03;;
7047;SDS011;3565;53.254;10.352;2024-01-16T14:05:21;9.30;;;5.17;;
7047;SDS011;3565;53.254;10.352;2024-01-16T14:07:52;8.37;;;5.53;;
7047;SDS011;3565;53.254;10.352;2024-01-16T14:10:21;9.50;;;5.47;;
7047;SDS011;3565;53.254;10.352;2024-01-16T14:15:29;9.63;;;4.90;;
7047;SDS011;3565;53.254;10.352;2024-01-16T14:17:59;7.80;;;4.83;;
7047;SDS011;3565;53.254;10.352;2024-01-16T14:20:29;7.87;;;5.07;;
7047;SDS011;3565;53.254;10.352;2024-01-16T14:22:59;11.37;;;5.37;;
7047;SDS011;3565;53.254;10.352;2024-01-16T14:28:10;8.13;;;4.80;;
7047;SDS011;3565;53.254;10.352;2024-01-16T14:33:16;8.60;;;4.80;;
7047;SDS011;3565;53.254;10.352;2024-01-16T14:35:45;6.83;;;4.77;;
7047;SDS011;3565;53.254;10.352;2024-01-16T14:38:15;7.43;;;4.83;;
7047;SDS011;3565;53.254;10.352;2024-01-16T14:40:44;7.97;;;5.13;;
7047;SDS011;3565;53.254;10.352;2024-01-16T14:43:12;8.67;;;4.90;;
7047;SDS011;3565;53.254;10.352;2024-01-16T14:48:20;12.07;;;5.60;;
7047;SDS011;3565;53.254;10.352;2024-01-16T14:53:26;10.73;;;4.97;;
7047;SDS011;3565;53.254;10.352;2024-01-16T14:55:56;8.43;;;4.50;;
7047;SDS011;3565;53.254;10.352;2024-01-16T14:58:25;8.37;;;5.40;;
7047;SDS011;3565;53.254;10.352;2024-01-16T15:03:32;8.60;;;5.10;;
7047;SDS011;3565;53.254;10.352;2024-01-16T15:06:01;8.83;;;5.40;;
7047;SDS011;3565;53.254;10.352;2024-01-16T15:08:31;8.93;;;5.37;;
7047;SDS011;3565;53.254;10.352;2024-01-16T15:11:00;8.53;;;5.33;;
7047;SDS011;3565;53.254;10.352;2024-01-16T15:16:09;10.53;;;5.50;;
7047;SDS011;3565;53.254;10.352;2024-01-16T15:18:39;13.33;;;5.70;;
7047;SDS011;3565;53.254;10.352;2024-01-16T15:21:09;6.70;;;4.77;;
7047;SDS011;3565;53.254;10.352;2024-01-16T15:26:15;9.50;;;4.73;;
7047;SDS011;3565;53.254;10.352;2024-01-16T15:28:46;7.70;;;4.67;;
7047;SDS011;3565;53.254;10.352;2024-01-16T15:31:16;8.90;;;5.63;;
7047;SDS011;3565;53.254;10.352;2024-01-16T15:36:22;12.53;;;5.73;;
7047;SDS011;3565;53.254;10.352;2024-01-16T15:38:52;10.43;;;5.63;;
7047;SDS011;3565;53.254;10.352;2024-01-16T15:43:58;13.30;;;6.33;;
7047;SDS011;3565;53.254;10.352;2024-01-16T15:46:29;11.27;;;5.70;;
7047;SDS011;3565;53.254;10.352;2024-01-16T15:48:58;9.70;;;5.97;;
7047;SDS011;3565;53.254;10.352;2024-01-16T15:54:05;11.40;;;5.87;;
7047;SDS011;3565;53.254;10.352;2024-01-16T15:56:34;8.40;;;5.63;;
7047;SDS011;3565;53.254;10.352;2024-01-16T15:59:03;13.60;;;6.23;;
7047;SDS011;3565;53.254;10.352;2024-01-16T16:04:10;11.23;;;5.63;;
7047;SDS011;3565;53.254;10.352;2024-01-16T16:06:39;13.37;;;6.50;;
7047;SDS011;3565;53.254;10.352;2024-01-16T16:09:10;12.07;;;6.20;;
7047;SDS011;3565;53.254;10.352;2024-01-16T16:14:16;13.67;;;6.17;;
7047;SDS011;3565;53.254;10.352;2024-01-16T16:16:48;12.00;;;6.17;;
7047;SDS011;3565;53.254;10.352;2024-01-16T16:19:17;10.53;;;6.77;;
7047;SDS011;3565;53.254;10.352;2024-01-16T16:24:24;11.77;;;6.90;;
7047;SDS011;3565;53.254;10.352;2024-01-16T16:26:54;11.80;;;6.27;;
7047;SDS011;3565;53.254;10.352;2024-01-16T16:29:24;11.50;;;6.97;;
7047;SDS011;3565;53.254;10.352;2024-01-16T16:34:31;10.17;;;6.00;;
7047;SDS011;3565;53.254;10.352;2024-01-16T16:36:59;10.53;;;6.13;;
7047;SDS011;3565;53.254;10.352;2024-01-16T16:39:29;8.87;;;6.10;;
7047;SDS011;3565;53.254;10.352;2024-01-16T16:44:35;14.80;;;7.03;;
7047;SDS011;3565;53.254;10.352;2024-01-16T16:47:05;9.27;;;5.87;;
7047;SDS011;3565;53.254;10.352;2024-01-16T16:49:34;10.50;;;6.03;;
7047;SDS011;3565;53.254;10.352;2024-01-16T16:54:42;9.60;;;6.63;;
7047;SDS011;3565;53.254;10.352;2024-01-16T16:57:13;10.77;;;6.33;;
7047;SDS011;3565;53.254;10.352;2024-01-16T16:59:42;10.70;;;6.97;;
7047;SDS011;3565;53.254;10.352;2024-01-16T17:02:11;12.23;;;6.77;;
7047;SDS011;3565;53.254;10.352;2024-01-16T17:04:40;11.43;;;6.63;;
7047;SDS011;3565;53.254;10.352;2024-01-16T17:07:09;11.23;;;7.07;;
7047;SDS011;3565;53.254;10.352;2024-01-16T17:09:39;13.40;;;7.23;;
7047;SDS011;3565;53.254;10.352;2024-01-16T17:12:09;12.33;;;6.40;;
7047;SDS011;3565;53.254;10.352;2024-01-16T17:14:39;10.03;;;6.67;;
7047;SDS011;3565;53.254;10.352;2024-01-16T17:17:08;13.20;;;6.93;;
7047;SDS011;3565;53.254;10.352;2024-01-16T17:22:15;14.97;;;7.73;;
7047;SDS011;3565;53.254;10.352;2024-01-16T17:24:47;13.97;;;7.47;;
7047;SDS011;3565;53.254;10.352;2024-01-16T17:27:26;12.30;;;7.23;;
7047;SDS011;3565;53.254;10.352;2024-01-16T17:29:57;18.07;;;8.60;;
7047;SDS011;3565;53.254;10.352;2024-01-16T17:32:26;13.37;;;8.17;;
7047;SDS011;3565;53.254;10.352;2024-01-16T17:34:55;14.63;;;8.00;;
7047;SDS011;3565;53.254;10.352;2024-01-16T17:37:25;13.73;;;7.80;;
7047;SDS011;3565;53.254;10.352;2024-01-16T17:42:31;17.40;;;8.97;;
7047;SDS011;3565;53.254;10.352;2024-01-16T17:47:38;17.53;;;10.17;;
7047;SDS011;3565;53.254;10.352;2024-01-16T17:50:08;16.17;;;9.47;;
7047;SDS011;3565;53.254;10.352;2024-01-16T17:52:38;14.47;;;8.37;;
7047;SDS011;3565;53.254;10.352;2024-01-16T17:55:08;13.93;;;8.93;;
7047;SDS011;3565;53.254;10.352;2024-01-16T17:57:38;18.33;;;10.03;;
7047;SDS011;3565;53.254;10.352;2024-01-16T18:02:53;17.77;;;9.83;;
7047;SDS011;3565;53.254;10.352;2024-01-16T18:05:23;16.20;;;9.03;;
7047;SDS011;3565;53.254;10.352;2024-01-16T18:10:32;22.50;;;11.40;;
7047;SDS011;3565;53.254;10.352;2024-01-16T18:13:01;17.20;;;10.60;;
7047;SDS011;3565;53.254;10.352;2024-01-16T18:15:32;22.37;;;11.90;;
7047;SDS011;3565;53.254;10.352;2024-01-16T18:20:40;19.43;;;10.57;;
7047;SDS011;3565;53.254;10.352;2024-01-16T18:23:09;23.07;;;11.83;;
7047;SDS011;3565;53.254;10.352;2024-01-16T18:28:15;19.50;;;11.50;;
7047;SDS011;3565;53.254;10.352;2024-01-16T18:30:44;18.97;;;12.13;;
7047;SDS011;3565;53.254;10.352;2024-01-16T18:33:14;18.70;;;11.83;;
7047;SDS011;3565;53.254;10.352;2024-01-16T18:38:20;22.10;;;12.73;;
7047;SDS011;3565;53.254;10.352;2024-01-16T18:40:50;20.63;;;12.57;;
7047;SDS011;3565;53.254;10.352;2024-01-16T18:43:19;22.70;;;13.17;;
7047;SDS011;3565;53.254;10.352;2024-01-16T18:48:26;21.60;;;12.53;;
7047;SDS011;3565;53.254;10.352;2024-01-16T18:50:55;23.20;;;13.17;;
7047;SDS011;3565;53.254;10.352;2024-01-16T18:53:34;21.30;;;13.03;;
7047;SDS011;3565;53.254;10.352;2024-01-16T18:58:40;22.27;;;12.47;;
7047;SDS011;3565;53.254;10.352;2024-01-16T19:01:09;21.07;;;11.63;;
7047;SDS011;3565;53.254;10.352;2024-01-16T19:03:48;20.70;;;11.63;;
7047;SDS011;3565;53.254;10.352;2024-01-16T19:06:17;21.10;;;11.27;;
7047;SDS011;3565;53.254;10.352;2024-01-16T19:11:23;21.90;;;11.40;;
7047;SDS011;3565;53.254;10.352;2024-01-16T19:13:53;13.30;;;9.57;;
7047;SDS011;3565;53.254;10.352;2024-01-16T19:18:59;19.30;;;10.73;;
7047;SDS011;3565;53.254;10.352;2024-01-16T19:21:28;19.07;;;10.90;;
7047;SDS011;3565;53.254;10.352;2024-01-16T19:23:57;17.47;;;10.70;;
7047;SDS011;3565;53.254;10.352;2024-01-16T19:26:35;15.97;;;10.13;;